Mahlon Sweet Field
KEUG : rendu visible

Aérodrome :











RETROUVEZ-NOUS SUR...

 
LOGIN :

S'inscrire | Disclaimer

   EN    FR    IT 

 









Légende :    VFR   VFR Marginal   IFR   IFR Intensif   IFR Très Intensif
Visi : 
Plafond : 
>= 8 km
>= 3000ft
5 à 8 km
1000 à 3000 ft
1500m à 5 km
500 à 1000 ft
800 à 1500m
200 à 500 ft
< 800m
< 200 ft
Symboles :   Orages  Brouillard  Fortes neiges  Fortes précipitations  Vent > 20 kt






- Altitude de l'aérodrome : 374 ft
- Code IATA : EUG


KEUG - Mahlon Sweet Field

DERNIER METAR :
  • 121118Z AUTO 17003KT 1 1/2SM R16R/4500VP6000FT BR BCFG OVC002 06/04 A3010 RMK AO2 VIS 3/4 RNW 34 T00560044 $

METARs EXPIRÉS :
  • 121102Z AUTO 14004KT 1/2SM R16R/2200V5000FT BR BCFG VV002 05/04 A3011 RMK AO2 T00500044 $
  • 121054Z AUTO 19003KT 1/4SM R16R/1200V2600FT BR BCFG VV001 05/04 A3011 RMK AO2 SLP197 T00500039 $
  • 121027Z AUTO 15003KT 1/4SM R16R/1200V1400FT BR BCFG VV001 05/04 A3010 RMK AO2 T00500039 $
  • 121004Z AUTO 21003KT 1/4SM R16R/1200V1600FT BR BCFG VV002 06/05 A3011 RMK AO2 T00560050 $
  • 120954Z AUTO 24004KT 1/4SM R16R/1200V2400FT BR BCFG VV002 06/04 A3011 RMK AO2 SLP196 T00560044 $
  • 120908Z AUTO 22003KT 1/4SM R16R/1400V1800FT BR BCFG VV002 04/04 A3011 RMK AO2 T00440039 $
  • 120854Z AUTO 00000KT 1/2SM R16R/1200V3000FT BR BCFG VV002 04/03 A3010 RMK AO2 SLP195 T00440033 58009 $
  • 120839Z AUTO 00000KT 1/4SM R16R/1200V2800FT BR BCFG VV003 04/03 A3011 RMK AO2 T00390028 $

TAF KEUG
Valide du 12 à 08h jusqu'au 13 à 06h UTC


120817Z 1208/1306 00000KT 3/4SM BR OVC005
FM121600 19004KT 3SM BR BKN025 OVC040
FM121800 19004KT P6SM OVC040
FM130000 21005KT P6SM OVC025



MET'MAP, la Météo Aéronautique d'un coup d'oeil ! - Copyright ORBIFLY Décembre 2007 - Disclaimer

ORBIFLY MET'MAP TEAM :

Programmation & Développement : Alexandra Zaïnal
Conception & Développement : Baudouin d'Aumeries
Co-Programmation & Développement : Marc-Olivier Méhu
Soutien technique & logistique : Manuel Goepfert

Contact : metmap@orbifly.com




SOURCES & CREDITS :

   NOAA       Earth
Advisory